Time;durP1;ratioP1;P1;durP2;ratioP2;P2;SDS_P1;SDS_P2;PMS_P1;PMS_P2;Temp;Humidity;BMP_temperature;BMP_pressure;BME280_temperature;BME280_humidity;BME280_pressure;Samples;Min_cycle;Max_cycle;Signal;HPM_P1;HPM_P2
2023/03/30 00:01:10;;;;;;;18.20;6.20;;;;;;;1.42;50.88;99354.04;105401;1257;97089;-71
2023/03/30 00:03:41;;;;;;;18.60;6.70;;;;;;;1.45;50.78;99349.75;105282;1251;110358;-70
2023/03/30 00:06:11;;;;;;;18.60;5.90;;;;;;;1.48;50.41;99349.47;105444;1257;101893;-69
2023/03/30 00:08:39;;;;;;;17.70;6.20;;;;;;;1.52;50.50;99346.74;105283;1266;107088;-70
2023/03/30 00:11:10;;;;;;;17.70;5.80;;;;;;;1.56;50.33;99342.45;105604;1251;96581;-70
2023/03/30 00:13:39;;;;;;;17.40;6.10;;;;;;;1.59;50.30;99343.20;105506;1254;97729;-69
2023/03/30 00:16:13;;;;;;;16.30;5.70;;;;;;;1.62;50.62;99346.95;105362;1251;109862;-69
2023/03/30 00:18:41;;;;;;;18.00;5.90;;;;;;;1.64;50.53;99346.89;105301;1251;102224;-70
2023/03/30 00:21:09;;;;;;;19.10;6.60;;;;;;;1.66;50.33;99339.34;105257;1251;107573;-69
2023/03/30 00:23:38;;;;;;;17.50;6.20;;;;;;;1.67;50.41;99337.39;105507;1256;97789;-70
2023/03/30 00:26:06;;;;;;;17.70;6.60;;;;;;;1.67;50.47;99329.50;105534;1251;98247;-69
2023/03/30 00:28:34;;;;;;;15.40;5.40;;;;;;;1.67;50.50;99326.70;105223;1251;110325;-73
2023/03/30 00:31:03;;;;;;;19.10;6.20;;;;;;;1.68;50.20;99324.77;105277;1257;101836;-69
2023/03/30 00:33:31;;;;;;;17.40;6.30;;;;;;;1.68;50.66;99323.89;105330;1255;107256;-70
2023/03/30 00:36:13;;;;;;;18.50;6.10;;;;;;;1.65;50.45;99320.11;105414;1257;96677;-69
2023/03/30 00:38:41;;;;;;;17.90;5.90;;;;;;;1.63;50.53;99318.27;105467;1257;96950;-69
2023/03/30 00:41:10;;;;;;;18.40;5.80;;;;;;;1.61;50.67;99316.06;105240;1257;109684;-69
2023/03/30 00:44:23;;;;;;;18.10;6.50;;;;;;;1.60;50.67;99317.14;105347;1255;101850;-69
2023/03/30 00:46:51;;;;;;;18.40;6.40;;;;;;;1.58;50.49;99314.57;105435;1255;107206;-69
2023/03/30 00:49:20;;;;;;;16.10;5.40;;;;;;;1.58;50.53;99316.15;105593;1257;96571;-69
2023/03/30 00:51:49;;;;;;;20.00;7.40;;;;;;;1.57;50.85;99308.30;105424;1251;97080;-69
2023/03/30 00:54:19;;;;;;;18.60;6.40;;;;;;;1.56;50.76;99305.05;105363;1251;109776;-69
2023/03/30 00:56:47;;;;;;;15.30;5.50;;;;;;;1.53;50.69;99296.91;105441;1257;101560;-70
2023/03/30 00:59:15;;;;;;;18.90;6.70;;;;;;;1.51;50.75;99294.86;105504;1251;107638;-69
2023/03/30 01:01:48;;;;;;;19.40;6.10;;;;;;;1.49;50.70;99293.86;105739;1254;96644;-70
2023/03/30 01:04:17;;;;;;;18.10;5.70;;;;;;;1.48;50.31;99292.35;105331;1257;96610;-70
2023/03/30 01:06:47;;;;;;;15.20;5.70;;;;;;;1.47;50.48;99290.98;105352;1256;109912;-70
2023/03/30 01:09:17;;;;;;;16.60;5.60;;;;;;;1.44;50.46;99290.37;105456;1256;102201;-72
2023/03/30 01:11:46;;;;;;;17.20;5.80;;;;;;;1.42;50.34;99291.33;105307;1251;107631;-69
2023/03/30 01:14:15;;;;;;;19.10;6.00;;;;;;;1.40;50.36;99289.10;105428;1259;96616;-70
2023/03/30 01:16:55;;;;;;;17.50;5.90;;;;;;;1.38;50.55;99284.10;105264;1254;97062;-69
2023/03/30 01:19:42;;;;;;;14.50;5.40;;;;;;;1.34;50.47;99286.47;105371;1257;108457;-69
2023/03/30 01:22:33;;;;;;;15.60;5.20;;;;;;;1.31;50.54;99284.31;105541;1254;102240;-70
2023/03/30 01:25:17;;;;;;;16.10;5.40;;;;;;;1.27;50.34;99277.43;105390;1257;107649;-69
2023/03/30 01:28:03;;;;;;;17.70;6.60;;;;;;;1.24;50.72;99273.52;105496;1250;96923;-69
2023/03/30 01:30:59;;;;;;;18.80;5.90;;;;;;;1.22;50.56;99266.07;105397;1255;97810;-69
2023/03/30 01:33:27;;;;;;;18.70;6.50;;;;;;;1.20;50.39;99265.98;105539;1255;109972;-70
2023/03/30 01:36:16;;;;;;;15.00;5.60;;;;;;;1.18;50.58;99267.59;105425;1256;101798;-71
2023/03/30 01:39:10;;;;;;;16.90;6.00;;;;;;;1.16;50.17;99268.18;105315;1257;107611;-74
2023/03/30 01:41:59;;;;;;;20.30;7.20;;;;;;;1.14;50.74;99263.52;105389;1251;96669;-70
2023/03/30 01:44:56;;;;;;;18.70;7.40;;;;;;;1.11;50.47;99259.21;105618;1251;96942;-70
2023/03/30 01:47:37;;;;;;;19.10;6.30;;;;;;;1.09;50.61;99251.11;105556;1264;109923;-70
2023/03/30 01:50:19;;;;;;;17.50;5.80;;;;;;;1.06;50.51;99256.43;105478;1257;101938;-69
2023/03/30 01:53:10;;;;;;;17.60;5.80;;;;;;;1.02;50.55;99259.52;105450;1251;107592;-69
2023/03/30 01:55:47;;;;;;;16.40;6.10;;;;;;;0.98;50.27;99258.06;105475;1251;96597;-69
2023/03/30 01:58:40;;;;;;;17.70;6.30;;;;;;;0.96;50.48;99259.19;105507;1256;98058;-72
2023/03/30 02:01:12;;;;;;;19.10;5.60;;;;;;;0.93;50.39;99264.70;105366;1257;109482;-70
2023/03/30 02:03:45;;;;;;;14.20;5.70;;;;;;;0.91;50.46;99264.39;105476;1251;102191;-69
2023/03/30 02:06:26;;;;;;;11.20;4.10;;;;;;;0.89;50.46;99258.67;105417;1257;107175;-70
2023/03/30 02:08:58;;;;;;;18.00;6.40;;;;;;;0.89;50.27;99259.04;105266;1254;96640;-69
2023/03/30 02:11:28;;;;;;;18.30;5.90;;;;;;;0.87;50.24;99253.67;105448;1254;96983;-72
2023/03/30 02:13:58;;;;;;;17.60;6.00;;;;;;;0.85;50.67;99257.21;105408;1256;111468;-70
2023/03/30 02:16:42;;;;;;;13.80;5.30;;;;;;;0.84;50.57;99255.70;105472;1257;101919;-69
2023/03/30 02:19:11;;;;;;;16.20;5.50;;;;;;;0.83;50.44;99256.23;105200;1251;107562;-69
2023/03/30 02:21:39;;;;;;;16.50;5.70;;;;;;;0.82;50.75;99256.81;105360;1254;97404;-70
2023/03/30 02:24:16;;;;;;;15.40;5.90;;;;;;;0.79;50.34;99252.17;105523;1254;96992;-69
2023/03/30 02:26:48;;;;;;;15.70;5.40;;;;;;;0.76;50.43;99258.19;105549;1256;109417;-69
2023/03/30 02:29:16;;;;;;;15.80;5.50;;;;;;;0.73;50.67;99258.98;105461;1251;101951;-70
2023/03/30 02:31:46;;;;;;;14.40;5.20;;;;;;;0.73;50.66;99257.77;105427;1251;107386;-69
2023/03/30 02:34:17;;;;;;;14.60;5.40;;;;;;;0.74;50.65;99259.66;105356;1254;97925;-72
2023/03/30 02:36:54;;;;;;;18.80;6.30;;;;;;;0.74;50.29;99257.20;105247;1256;97108;-69
2023/03/30 02:39:25;;;;;;;15.70;5.50;;;;;;;0.73;50.68;99257.05;105371;1266;109561;-70
2023/03/30 02:42:05;;;;;;;15.40;5.40;;;;;;;0.73;50.63;99254.27;105321;1251;100900;-69
2023/03/30 02:44:47;;;;;;;14.60;5.60;;;;;;;0.72;50.69;99252.35;105406;1257;107511;-68
2023/03/30 02:47:15;;;;;;;14.90;5.10;;;;;;;0.71;50.70;99246.98;105289;1255;96615;-69
2023/03/30 02:49:58;;;;;;;15.30;5.10;;;;;;;0.71;50.62;99246.64;105539;1254;96586;-70
2023/03/30 02:52:54;;;;;;;15.50;5.40;;;;;;;0.69;50.61;99250.71;105453;1256;109432;-70
2023/03/30 02:55:36;;;;;;;17.30;6.00;;;;;;;0.69;50.75;99249.31;105442;1257;101886;-69
2023/03/30 02:58:35;;;;;;;15.50;6.40;;;;;;;0.69;50.52;99249.85;105357;1251;107575;-68
2023/03/30 03:01:31;;;;;;;17.50;6.00;;;;;;;0.68;50.71;99246.91;105484;1257;96667;-69
2023/03/30 03:04:03;;;;;;;16.00;5.10;;;;;;;0.68;50.86;99242.73;105755;1257;98011;-69
2023/03/30 03:06:31;;;;;;;15.60;5.00;;;;;;;0.67;50.66;99237.49;105360;1256;109907;-70
2023/03/30 03:09:00;;;;;;;15.20;5.40;;;;;;;0.67;51.07;99235.94;108795;1251;102214;-68
2023/03/30 03:11:28;;;;;;;13.50;4.70;;;;;;;0.66;50.84;99235.61;108807;1250;106924;-68
2023/03/30 03:13:56;;;;;;;16.10;5.10;;;;;;;0.67;50.90;99232.61;108828;1251;94529;-68
2023/03/30 03:16:24;;;;;;;15.50;4.70;;;;;;;0.69;50.76;99221.40;108853;1250;94512;-68
2023/03/30 03:18:52;;;;;;;13.50;4.90;;;;;;;0.74;50.81;99223.17;108831;1251;109590;-69
2023/03/30 03:21:20;;;;;;;14.70;5.40;;;;;;;0.79;51.06;99221.64;106051;1256;100943;-69
2023/03/30 03:23:48;;;;;;;14.70;4.90;;;;;;;0.86;50.94;99217.23;105416;1255;107188;-71
2023/03/30 03:26:16;;;;;;;13.60;4.30;;;;;;;0.93;51.04;99217.70;105458;1264;96593;-68
2023/03/30 03:28:44;;;;;;;17.00;5.40;;;;;;;0.99;50.89;99214.20;105410;1254;96789;-69
2023/03/30 03:31:12;;;;;;;16.00;5.60;;;;;;;1.07;51.10;99216.77;108745;1251;109860;-69
2023/03/30 03:33:40;;;;;;;13.90;5.30;;;;;;;1.13;50.94;99220.22;108865;1251;104320;-69
2023/03/30 03:36:10;;;;;;;11.40;4.30;;;;;;;1.19;51.13;99213.40;108423;1251;107619;-69
2023/03/30 03:38:39;;;;;;;11.10;4.50;;;;;;;1.26;51.11;99205.32;105323;1257;96631;-69
2023/03/30 03:41:08;;;;;;;11.80;4.50;;;;;;;1.32;51.28;99206.70;105286;1257;98269;-69
2023/03/30 03:43:36;;;;;;;13.80;5.90;;;;;;;1.37;51.23;99196.77;105644;1254;109430;-69
2023/03/30 03:46:03;;;;;;;11.60;4.60;;;;;;;1.40;51.29;99194.91;105594;1254;102324;-72
2023/03/30 03:48:31;;;;;;;13.40;5.50;;;;;;;1.43;51.37;99194.81;105450;1256;106239;-69
2023/03/30 03:50:59;;;;;;;14.80;5.30;;;;;;;1.45;51.39;99190.38;105619;1256;193812;-70
2023/03/30 03:53:28;;;;;;;16.60;5.20;;;;;;;1.47;51.54;99188.05;105489;1256;96606;-69
2023/03/30 03:55:56;;;;;;;13.10;4.70;;;;;;;1.48;51.54;99186.61;105417;1256;110015;-70
2023/03/30 03:58:25;;;;;;;14.60;5.10;;;;;;;1.48;51.44;99187.99;105385;1261;101738;-69
2023/03/30 04:00:58;;;;;;;14.50;5.30;;;;;;;1.48;51.41;99186.23;105515;1254;107556;-70
2023/03/30 04:03:26;;;;;;;13.70;5.20;;;;;;;1.49;51.16;99184.48;105386;1256;96603;-69
2023/03/30 04:05:58;;;;;;;13.50;5.30;;;;;;;1.50;51.34;99186.72;105433;1259;98023;-69
2023/03/30 04:08:27;;;;;;;11.80;4.60;;;;;;;1.52;51.49;99189.46;105417;1255;109870;-68
2023/03/30 04:10:55;;;;;;;14.30;5.60;;;;;;;1.55;51.39;99184.48;105434;1254;102218;-69
2023/03/30 04:13:23;;;;;;;16.10;5.70;;;;;;;1.56;51.40;99182.48;105201;1265;107278;-70
2023/03/30 04:15:51;;;;;;;13.10;4.60;;;;;;;1.58;51.33;99182.77;105223;1256;96688;-68
2023/03/30 04:18:20;;;;;;;15.40;5.60;;;;;;;1.60;51.27;99181.48;105481;1251;97086;-70
2023/03/30 04:20:49;;;;;;;12.50;4.70;;;;;;;1.61;51.66;99178.12;105448;1251;109837;-69
2023/03/30 04:23:20;;;;;;;12.40;4.20;;;;;;;1.63;51.46;99179.47;105390;1257;102212;-70
2023/03/30 04:25:50;;;;;;;10.10;4.50;;;;;;;1.66;51.47;99176.73;105714;1254;107222;-69
2023/03/30 04:28:20;;;;;;;12.70;4.80;;;;;;;1.69;51.36;99178.39;105247;1254;96637;-69
2023/03/30 04:30:49;;;;;;;12.90;4.80;;;;;;;1.73;51.59;99173.01;105457;1255;96935;-70
2023/03/30 04:33:18;;;;;;;11.50;4.90;;;;;;;1.76;51.43;99170.98;105423;1257;109872;-69
2023/03/30 04:35:46;;;;;;;14.20;4.70;;;;;;;1.80;51.47;99173.82;105335;1264;101939;-69
2023/03/30 04:38:21;;;;;;;14.10;5.50;;;;;;;1.85;51.52;99172.42;105584;1257;107355;-72
2023/03/30 04:40:50;;;;;;;15.20;5.70;;;;;;;1.90;51.53;99173.27;105339;1266;96587;-70
2023/03/30 04:43:20;;;;;;;16.10;5.60;;;;;;;1.95;51.69;99168.40;105569;1255;96959;-69
2023/03/30 04:45:53;;;;;;;16.30;6.00;;;;;;;1.99;51.58;99168.27;105526;1255;108369;-74
2023/03/30 04:48:23;;;;;;;15.30;5.40;;;;;;;2.05;51.55;99162.97;105407;1255;102156;-69
2023/03/30 04:50:52;;;;;;;15.20;5.80;;;;;;;2.10;51.74;99161.37;105514;1257;105559;-69
2023/03/30 04:53:21;;;;;;;13.50;5.10;;;;;;;2.16;51.67;99163.09;105471;1260;97373;-69
2023/03/30 04:55:50;;;;;;;14.60;5.50;;;;;;;2.20;51.73;99160.13;105504;1257;96829;-69
2023/03/30 04:58:18;;;;;;;14.90;5.20;;;;;;;2.24;51.69;99153.70;108766;1251;109870;-67
2023/03/30 05:00:46;;;;;;;17.90;6.10;;;;;;;2.29;51.78;99147.05;108825;1251;102225;-68
2023/03/30 05:03:14;;;;;;;14.00;5.50;;;;;;;2.33;51.83;99147.58;108776;1251;107632;-67
2023/03/30 05:05:42;;;;;;;18.20;5.10;;;;;;;2.39;51.76;99148.27;106915;1256;96565;-68
2023/03/30 05:08:10;;;;;;;12.90;5.40;;;;;;;2.45;51.75;99145.58;108734;1251;94256;-68
2023/03/30 05:10:38;;;;;;;17.20;5.70;;;;;;;2.51;51.76;99140.60;108788;1251;109980;-68
2023/03/30 05:13:06;;;;;;;15.70;6.10;;;;;;;2.57;51.78;99136.19;105924;1257;102912;-69
2023/03/30 05:15:34;;;;;;;14.60;5.50;;;;;;;2.63;51.62;99137.88;105377;1257;107607;-69
2023/03/30 05:18:03;;;;;;;16.20;5.80;;;;;;;2.68;51.77;99131.70;105835;1256;96580;-69
2023/03/30 05:20:31;;;;;;;12.90;5.50;;;;;;;2.73;51.82;99129.27;105525;1264;96933;-68
2023/03/30 05:22:59;;;;;;;14.60;6.10;;;;;;;2.77;51.79;99124.23;105571;1255;109896;-69
2023/03/30 05:25:27;;;;;;;21.20;6.20;;;;;;;2.79;51.80;99122.55;105268;1257;102075;-68
2023/03/30 05:27:55;;;;;;;20.10;6.40;;;;;;;2.81;51.69;99131.76;105335;1264;107206;-70
2023/03/30 05:30:23;;;;;;;18.20;6.50;;;;;;;2.81;51.82;99131.04;105475;1257;96580;-68
2023/03/30 05:32:51;;;;;;;15.30;5.70;;;;;;;2.84;51.83;99128.13;105295;1257;97150;-71
2023/03/30 05:35:20;;;;;;;19.50;6.50;;;;;;;2.88;51.77;99134.26;105494;1256;109882;-69
2023/03/30 05:37:48;;;;;;;19.40;6.20;;;;;;;2.92;51.75;99130.27;105696;1257;102229;-69
2023/03/30 05:40:17;;;;;;;18.70;7.20;;;;;;;2.95;51.90;99133.66;107856;1256;107634;-69
2023/03/30 05:42:45;;;;;;;19.90;6.10;;;;;;;2.98;51.90;99131.08;105571;1257;96692;-68
2023/03/30 05:45:13;;;;;;;17.20;5.90;;;;;;;3.00;51.81;99128.23;105645;1257;98085;-69
2023/03/30 05:47:41;;;;;;;19.00;6.80;;;;;;;3.01;51.95;99130.61;105528;1263;109598;-69
2023/03/30 05:50:10;;;;;;;14.40;5.80;;;;;;;3.02;51.85;99124.47;105372;1257;101206;-69
2023/03/30 05:52:38;;;;;;;19.00;6.80;;;;;;;3.02;51.87;99128.32;105536;1264;107305;-69
2023/03/30 05:55:06;;;;;;;18.60;6.40;;;;;;;3.04;51.94;99123.32;105585;1254;96587;-69
2023/03/30 05:57:34;;;;;;;19.00;6.50;;;;;;;3.07;51.97;99119.33;105693;1256;96494;-69
2023/03/30 06:00:12;;;;;;;17.10;6.50;;;;;;;3.10;52.07;99120.61;105648;1257;110387;-68
2023/03/30 06:02:40;;;;;;;18.00;6.10;;;;;;;3.14;51.99;99121.66;108905;1251;102071;-69
2023/03/30 06:05:08;;;;;;;17.60;6.90;;;;;;;3.20;51.99;99120.56;108855;1251;107180;-67
2023/03/30 06:07:36;;;;;;;17.10;5.70;;;;;;;3.26;52.02;99120.98;108879;1251;94491;-66
2023/03/30 06:10:06;;;;;;;16.80;6.00;;;;;;;3.29;52.06;99121.74;106419;1254;96725;-69
2023/03/30 06:12:34;;;;;;;21.20;7.40;;;;;;;3.30;51.90;99114.15;105491;1264;109448;-70
2023/03/30 06:15:02;;;;;;;19.10;7.60;;;;;;;3.31;52.05;99112.58;105440;1255;102213;-69
2023/03/30 06:17:30;;;;;;;19.10;7.60;;;;;;;3.31;52.12;99108.17;105475;1256;108452;-68
2023/03/30 06:19:58;;;;;;;22.00;8.30;;;;;;;3.34;52.02;99104.02;105218;1265;98009;-68
2023/03/30 06:22:26;;;;;;;21.70;8.30;;;;;;;3.45;52.26;99103.55;105540;1254;96903;-69
2023/03/30 06:24:57;;;;;;;20.50;7.30;;;;;;;3.61;52.16;99102.17;105560;1256;108332;-69
2023/03/30 06:27:25;;;;;;;18.00;7.00;;;;;;;3.83;52.34;99100.48;105525;1254;101821;-70
2023/03/30 06:29:53;;;;;;;20.40;7.30;;;;;;;4.09;52.54;99095.67;105480;1264;107652;-68
2023/03/30 06:32:22;;;;;;;17.80;6.80;;;;;;;4.31;52.65;99096.05;105403;1257;97804;-68
2023/03/30 06:34:51;;;;;;;18.00;6.70;;;;;;;4.46;52.51;99091.86;105553;1256;96826;-68
2023/03/30 06:37:20;;;;;;;18.70;6.90;;;;;;;4.57;52.36;99085.58;105445;1254;109886;-68
2023/03/30 06:39:47;;;;;;;17.20;7.00;;;;;;;4.67;52.36;99083.16;105604;1254;101947;-69
2023/03/30 06:42:15;;;;;;;21.10;7.50;;;;;;;4.75;52.65;99081.20;105321;1256;107604;-69
2023/03/30 06:44:43;;;;;;;20.40;6.50;;;;;;;4.82;52.33;99080.66;105208;1258;96568;-68
2023/03/30 06:47:12;;;;;;;16.80;6.90;;;;;;;4.88;52.22;99081.07;105408;1255;96991;-68
2023/03/30 06:49:40;;;;;;;19.90;6.70;;;;;;;4.94;52.51;99076.94;105322;1264;108908;-73
2023/03/30 06:52:08;;;;;;;17.20;6.10;;;;;;;4.98;52.39;99084.13;105403;1254;102470;-69
2023/03/30 06:54:36;;;;;;;18.80;7.00;;;;;;;5.02;52.21;99087.08;105445;1251;107599;-69
2023/03/30 06:57:04;;;;;;;15.20;6.40;;;;;;;5.05;52.49;99081.13;106607;1254;96599;-69
2023/03/30 06:59:33;;;;;;;18.20;6.90;;;;;;;5.07;52.28;99075.23;105532;1257;96659;-67
2023/03/30 07:02:03;;;;;;;19.50;7.20;;;;;;;5.11;52.36;99074.33;105347;1254;109917;-68
2023/03/30 07:04:30;;;;;;;22.00;6.70;;;;;;;5.17;52.41;99075.96;105140;1254;102196;-72
2023/03/30 07:06:59;;;;;;;21.40;7.40;;;;;;;5.23;52.23;99071.84;105466;1264;106755;-69
2023/03/30 07:09:27;;;;;;;22.00;7.90;;;;;;;5.29;52.59;99077.61;105599;1254;97926;-68
2023/03/30 07:11:55;;;;;;;18.60;7.20;;;;;;;5.40;52.42;99076.73;105533;1251;97508;-68
2023/03/30 07:14:23;;;;;;;18.30;7.60;;;;;;;5.52;52.48;99072.10;105631;1251;110600;-69
2023/03/30 07:16:52;;;;;;;19.40;7.40;;;;;;;5.60;52.42;99075.52;105536;1264;101929;-68
2023/03/30 07:19:20;;;;;;;16.80;6.50;;;;;;;5.63;52.27;99068.54;108794;1251;107592;-69
2023/03/30 07:21:48;;;;;;;17.10;6.30;;;;;;;5.68;52.61;99068.48;108881;1250;94445;-69
2023/03/30 07:24:16;;;;;;;19.10;7.60;;;;;;;5.74;52.62;99067.63;108799;1251;94591;-69
2023/03/30 07:26:44;;;;;;;19.50;7.60;;;;;;;5.85;52.45;99060.88;105803;1265;107830;-69
2023/03/30 07:29:14;;;;;;;19.30;7.80;;;;;;;5.94;52.42;99060.70;105438;1254;102177;-69
2023/03/30 07:31:42;;;;;;;21.40;7.80;;;;;;;6.07;52.32;99059.17;105325;1256;107658;-68
2023/03/30 07:34:10;;;;;;;20.40;7.20;;;;;;;6.20;52.62;99063.80;105376;1257;96603;-69
2023/03/30 07:36:38;;;;;;;23.00;7.70;;;;;;;6.32;52.55;99062.77;105639;1254;96845;-68
2023/03/30 07:39:07;;;;;;;17.30;7.50;;;;;;;6.37;52.33;99059.51;105338;1256;109449;-70
2023/03/30 07:41:35;;;;;;;19.40;7.80;;;;;;;6.41;52.50;99062.64;105406;1254;101860;-69
2023/03/30 07:44:03;;;;;;;19.50;7.60;;;;;;;6.47;52.41;99068.64;105355;1260;107683;-71
2023/03/30 07:46:32;;;;;;;18.40;6.90;;;;;;;6.49;52.40;99064.36;105423;1254;96685;-69
2023/03/30 07:49:00;;;;;;;19.90;8.00;;;;;;;6.41;52.10;99073.75;105589;1254;97611;-69
2023/03/30 07:51:28;;;;;;;19.50;8.00;;;;;;;6.34;52.30;99074.45;105550;1255;109995;-68
2023/03/30 07:53:56;;;;;;;19.90;7.40;;;;;;;6.32;52.09;99068.06;105516;1254;102233;-68
2023/03/30 07:56:24;;;;;;;20.60;7.40;;;;;;;6.31;52.34;99070.25;105617;1260;107621;-69
2023/03/30 07:58:53;;;;;;;24.90;11.90;;;;;;;6.36;52.44;99071.01;105497;1256;96709;-69
2023/03/30 08:01:22;;;;;;;21.70;9.20;;;;;;;6.41;52.53;99072.67;105583;1251;96838;-68
2023/03/30 08:03:49;;;;;;;20.90;8.40;;;;;;;6.45;52.51;99070.69;105476;1251;109968;-69
2023/03/30 08:06:17;;;;;;;27.50;12.40;;;;;;;6.49;52.60;99066.09;105493;1254;100465;-68
2023/03/30 08:08:46;;;;;;;25.80;10.70;;;;;;;6.56;52.62;99068.85;105380;1254;107046;-69
2023/03/30 08:11:15;;;;;;;20.60;8.60;;;;;;;6.67;52.61;99069.64;105433;1257;96666;-73
2023/03/30 08:13:43;;;;;;;21.20;9.40;;;;;;;6.76;52.24;99063.34;105460;1257;97528;-70
2023/03/30 08:16:12;;;;;;;21.00;9.60;;;;;;;6.85;52.49;99062.13;105208;1256;109849;-69
2023/03/30 08:18:42;;;;;;;18.30;7.90;;;;;;;7.00;52.50;99058.42;105392;1254;102888;-69
2023/03/30 08:21:11;;;;;;;18.90;7.20;;;;;;;7.14;52.45;99050.22;105536;1256;107676;-68
2023/03/30 08:23:39;;;;;;;19.90;8.10;;;;;;;7.29;52.45;99045.83;105573;1254;97918;-68
2023/03/30 08:26:06;;;;;;;20.70;8.00;;;;;;;7.39;52.37;99039.56;105505;1254;96529;-69
2023/03/30 08:28:35;;;;;;;19.10;7.00;;;;;;;7.47;52.45;99037.20;105221;1258;109903;-68
2023/03/30 08:31:05;;;;;;;18.90;7.80;;;;;;;7.52;52.37;99037.41;105327;1256;100419;-73
2023/03/30 08:33:34;;;;;;;21.80;8.80;;;;;;;7.52;52.10;99037.55;105427;1254;106821;-69
2023/03/30 08:36:03;;;;;;;21.50;7.90;;;;;;;7.55;52.29;99035.63;105604;1251;96614;-73
2023/03/30 08:38:31;;;;;;;20.00;7.70;;;;;;;7.58;52.29;99039.11;105406;1251;97804;-69
2023/03/30 08:41:00;;;;;;;19.40;7.20;;;;;;;7.60;51.77;99039.54;105594;1254;107731;-68
2023/03/30 08:43:34;;;;;;;19.00;8.20;;;;;;;7.63;52.22;99034.11;105610;1256;101736;-69
2023/03/30 08:46:02;;;;;;;;;;;;;;;7.68;52.18;99029.56;105547;1251;108395;-69
2023/03/30 08:48:36;;;;;;;17.30;7.10;;;;;;;7.69;51.85;99030.21;105486;1254;96794;-68
2023/03/30 08:51:28;;;;;;;19.00;7.10;;;;;;;7.70;51.97;99029.59;105575;1254;96503;-69
2023/03/30 08:54:01;;;;;;;18.60;7.70;;;;;;;7.80;51.58;99020.35;105683;1250;109420;-70
2023/03/30 08:56:38;;;;;;;17.10;6.60;;;;;;;7.80;51.99;99021.55;105258;1257;102240;-69
2023/03/30 08:59:17;;;;;;;17.50;6.50;;;;;;;7.83;51.91;99017.73;105354;1254;107674;-68
2023/03/30 09:02:11;;;;;;;19.70;7.10;;;;;;;7.81;51.95;99013.73;105375;1251;96623;-70
2023/03/30 09:04:56;;;;;;;17.10;6.80;;;;;;;7.79;51.96;99010.17;105382;1254;96595;-73
2023/03/30 09:07:30;;;;;;;18.70;6.80;;;;;;;7.83;52.08;99005.88;105387;1266;109876;-69
2023/03/30 09:09:59;;;;;;;19.30;6.90;;;;;;;7.90;51.91;99003.81;105393;1260;102214;-69
2023/03/30 09:12:42;;;;;;;17.70;7.00;;;;;;;7.97;51.91;99002.88;105277;1257;106333;-69
2023/03/30 09:15:42;;;;;;;18.20;6.50;;;;;;;8.05;52.06;98996.04;105375;1251;96683;-69
2023/03/30 09:18:29;;;;;;;15.40;6.40;;;;;;;8.15;51.92;98987.93;105401;1251;97814;-69
2023/03/30 09:21:00;;;;;;;14.90;6.20;;;;;;;8.25;52.20;98986.30;105215;1258;109877;-70
2023/03/30 09:23:29;;;;;;;16.60;6.30;;;;;;;8.33;52.07;98977.65;105676;1251;101450;-69
2023/03/30 09:26:17;;;;;;;15.30;6.80;;;;;;;8.34;51.93;98970.34;105359;1265;107052;-69
2023/03/30 09:28:47;;;;;;;16.40;6.20;;;;;;;8.39;51.86;98975.16;105321;1254;98097;-69
2023/03/30 09:31:44;;;;;;;16.20;6.10;;;;;;;8.47;51.78;98969.65;105512;1251;96876;-70
2023/03/30 09:34:26;;;;;;;15.40;6.30;;;;;;;8.54;51.35;98968.70;105494;1254;109931;-71
2023/03/30 09:37:09;;;;;;;17.60;6.60;;;;;;;8.55;51.67;98973.05;105252;1254;102198;-69
2023/03/30 09:39:40;;;;;;;25.70;9.20;;;;;;;8.56;51.70;98974.21;105409;1254;107565;-71
2023/03/30 09:42:37;;;;;;;19.10;7.00;;;;;;;8.60;51.72;98968.14;105303;1256;96623;-68
2023/03/30 09:45:27;;;;;;;14.80;6.10;;;;;;;8.65;52.10;98965.66;105462;1251;96660;-69
2023/03/30 09:48:05;;;;;;;16.30;6.30;;;;;;;8.71;51.75;98963.87;105480;1251;110535;-68
2023/03/30 09:50:40;;;;;;;15.50;6.20;;;;;;;8.73;51.50;98961.45;105152;1257;102290;-68
2023/03/30 09:53:24;;;;;;;18.80;7.00;;;;;;;8.70;51.40;98955.30;105429;1251;107578;-70
2023/03/30 09:56:16;;;;;;;18.70;7.30;;;;;;;8.67;51.74;98949.98;105200;1257;97901;-69
2023/03/30 09:58:45;;;;;;;17.20;6.50;;;;;;;8.72;51.43;98950.86;105172;1256;98203;-69
2023/03/30 10:01:19;;;;;;;15.00;5.90;;;;;;;8.79;51.73;98941.60;105436;1251;109886;-70
2023/03/30 10:04:07;;;;;;;14.60;6.20;;;;;;;8.86;51.63;98941.54;105372;1260;102718;-70
2023/03/30 10:06:43;;;;;;;17.20;6.50;;;;;;;8.95;52.04;98945.14;105383;1251;107384;-68
2023/03/30 10:09:12;;;;;;;17.10;6.40;;;;;;;9.05;51.76;98939.51;105252;1254;96650;-70
2023/03/30 10:11:47;;;;;;;15.20;6.20;;;;;;;9.11;51.65;98945.86;105309;1257;97541;-69
2023/03/30 10:14:36;;;;;;;15.50;5.90;;;;;;;9.17;51.75;98944.16;105418;1251;109449;-71
2023/03/30 10:17:05;;;;;;;14.70;6.20;;;;;;;9.28;51.85;98942.88;105301;1254;102263;-68
2023/03/30 10:19:34;;;;;;;16.40;6.10;;;;;;;9.44;51.71;98946.75;105407;1254;107594;-69
2023/03/30 10:22:19;;;;;;;18.40;6.40;;;;;;;9.55;51.35;98942.98;105325;1251;97893;-71
2023/03/30 10:24:50;;;;;;;15.10;6.10;;;;;;;9.65;51.37;98940.52;105262;1253;98031;-69
2023/03/30 10:27:24;;;;;;;15.30;6.40;;;;;;;9.79;51.73;98941.96;105390;1256;107801;-69
2023/03/30 10:29:52;;;;;;;;;;;;;;;9.99;51.86;98938.23;105301;1264;101491;-71
2023/03/30 10:32:30;;;;;;;15.80;6.60;;;;;;;10.08;51.44;98924.14;105297;1254;106736;-70
2023/03/30 10:35:03;;;;;;;20.80;6.40;;;;;;;10.15;51.37;98922.98;105300;1254;96570;-70
2023/03/30 10:37:37;;;;;;;16.40;6.00;;;;;;;10.20;51.54;98919.70;105199;1254;97804;-70
2023/03/30 10:40:20;;;;;;;14.10;5.90;;;;;;;10.24;51.13;98914.33;105550;1251;108317;-69
2023/03/30 10:42:54;;;;;;;19.10;6.50;;;;;;;10.20;51.03;98921.86;105446;1257;101224;-69
2023/03/30 10:45:35;;;;;;;16.50;6.10;;;;;;;10.20;51.19;98923.29;105134;1257;107666;-68
2023/03/30 10:48:29;;;;;;;14.90;5.60;;;;;;;10.23;51.24;98919.89;105156;1257;96610;-68
2023/03/30 10:50:57;;;;;;;;;;;;;;;10.27;51.30;98914.45;105522;1251;96595;-68
2023/03/30 10:53:46;;;;;;;13.40;5.70;;;;;;;10.31;51.44;98915.73;105626;1254;110013;-69
2023/03/30 10:56:14;;;;;;;11.00;5.00;;;;;;;10.40;51.04;98907.11;105434;1265;102226;-71
2023/03/30 10:59:07;;;;;;;14.00;6.00;;;;;;;10.46;51.08;98911.16;105574;1265;107561;-68
2023/03/30 11:02:13;;;;;;;15.60;5.90;;;;;;;10.51;50.71;98909.68;105228;1258;96671;-69
2023/03/30 11:04:46;;;;;;;16.60;6.50;;;;;;;10.44;50.95;98891.40;105419;1254;97439;-70
2023/03/30 11:07:30;;;;;;;15.10;6.10;;;;;;;10.45;51.08;98886.55;105252;1257;109703;-69
2023/03/30 11:10:05;;;;;;;15.30;5.80;;;;;;;10.48;50.80;98887.23;105442;1254;102201;-72
2023/03/30 11:12:39;;;;;;;14.60;5.70;;;;;;;10.58;51.05;98884.52;105392;1254;107612;-69
2023/03/30 11:15:16;;;;;;;15.20;5.60;;;;;;;10.72;51.10;98882.24;105283;1254;96692;-71
2023/03/30 11:17:58;;;;;;;14.50;6.20;;;;;;;10.87;51.21;98880.95;105464;1254;97022;-69
2023/03/30 11:20:32;;;;;;;15.50;6.60;;;;;;;11.02;51.22;98875.55;105345;1256;109880;-69
2023/03/30 11:23:15;;;;;;;14.90;5.80;;;;;;;11.10;50.61;98875.64;105429;1254;102230;-69
2023/03/30 11:25:59;;;;;;;15.60;6.20;;;;;;;11.10;50.33;98868.33;105315;1254;107378;-69
2023/03/30 11:28:34;;;;;;;15.50;6.30;;;;;;;11.11;50.32;98862.94;105441;1257;96647;-69
2023/03/30 11:31:28;;;;;;;15.90;6.20;;;;;;;11.15;50.61;98865.47;105508;1254;96651;-68
2023/03/30 11:34:11;;;;;;;16.10;7.00;;;;;;;11.07;50.40;98861.52;105420;1250;110305;-71
2023/03/30 11:37:02;;;;;;;17.10;6.30;;;;;;;10.99;50.34;98858.18;105517;1254;102195;-69
2023/03/30 11:39:35;;;;;;;16.80;6.40;;;;;;;10.92;50.26;98844.91;105305;1257;107101;-69
2023/03/30 11:42:19;;;;;;;16.80;7.00;;;;;;;10.86;50.10;98842.50;105359;1254;97637;-68
2023/03/30 11:44:47;;;;;;;16.00;5.90;;;;;;;10.85;50.30;98845.58;105307;1251;97370;-70
2023/03/30 11:47:27;;;;;;;16.20;6.00;;;;;;;10.89;50.65;98846.73;105505;1251;110603;-69